createdAt,value
2022-12-13T00:01:50.963Z,22.27
2022-12-13T00:06:06.316Z,20.87
2022-12-13T00:10:18.022Z,22.13
2022-12-13T00:14:30.072Z,19.53
2022-12-13T00:18:41.693Z,16.63
2022-12-13T00:22:53.998Z,16.57
2022-12-13T00:27:06.140Z,23.80
2022-12-13T00:31:53.430Z,16.50
2022-12-13T00:35:51.092Z,19.60
2022-12-13T00:40:04.146Z,16.00
2022-12-13T00:44:15.950Z,17.23
2022-12-13T00:48:27.514Z,18.17
2022-12-13T00:52:39.186Z,17.60
2022-12-13T00:56:51.544Z,17.10
2022-12-13T01:01:09.089Z,22.77
2022-12-13T01:05:47.223Z,18.27
2022-12-13T01:09:52.455Z,19.77
2022-12-13T01:14:04.093Z,17.23
2022-12-13T01:18:41.326Z,21.27
2022-12-13T01:22:52.865Z,19.37
2022-12-13T01:27:04.944Z,18.43
2022-12-13T01:31:18.882Z,15.37
2022-12-13T01:35:30.454Z,21.67
2022-12-13T01:39:42.029Z,20.27
2022-12-13T01:43:56.685Z,18.13
2022-12-13T01:48:17.492Z,18.40
2022-12-13T01:52:33.518Z,16.97
2022-12-13T01:56:50.062Z,18.00
2022-12-13T02:01:01.861Z,20.03
2022-12-13T02:05:36.258Z,21.07
2022-12-13T02:09:49.272Z,21.53
2022-12-13T02:14:09.808Z,19.67
2022-12-13T02:18:35.199Z,16.73
2022-12-13T02:23:07.543Z,16.03
2022-12-13T02:27:30.881Z,16.57
2022-12-13T02:31:53.182Z,17.20
2022-12-13T02:36:10.843Z,16.97
2022-12-13T02:40:30.002Z,14.80
2022-12-13T02:44:57.381Z,21.73
2022-12-13T02:49:11.065Z,19.37
2022-12-13T02:53:24.461Z,22.17
2022-12-13T02:57:38.731Z,18.37
2022-12-13T03:02:09.511Z,26.20
2022-12-13T03:06:33.527Z,23.23
2022-12-13T03:11:05.797Z,22.37
2022-12-13T03:15:27.008Z,23.93
2022-12-13T03:19:38.613Z,18.93
2022-12-13T03:23:50.245Z,19.17
2022-12-13T03:28:02.658Z,24.83
2022-12-13T03:32:14.551Z,18.57
2022-12-13T03:36:26.457Z,22.33
2022-12-13T03:40:38.119Z,29.47
2022-12-13T03:44:49.777Z,19.80
2022-12-13T03:49:01.673Z,20.93
2022-12-13T03:53:22.224Z,19.07
2022-12-13T03:57:35.304Z,22.83
2022-12-13T04:01:46.879Z,21.80
2022-12-13T04:05:58.515Z,20.60
2022-12-13T04:10:26.218Z,22.23
2022-12-13T04:14:38.251Z,18.57
2022-12-13T04:18:49.996Z,22.03
2022-12-13T04:23:01.672Z,26.57
2022-12-13T04:27:22.204Z,18.97
2022-12-13T04:31:33.878Z,22.13
2022-12-13T04:35:45.453Z,21.93
2022-12-13T04:40:01.019Z,21.10
2022-12-13T04:44:27.614Z,22.03
2022-12-13T04:48:41.482Z,22.40
2022-12-13T04:52:53.148Z,19.73
2022-12-13T04:57:11.278Z,19.97
2022-12-13T05:01:22.866Z,23.47
2022-12-13T05:05:34.519Z,21.97
2022-12-13T05:09:46.089Z,23.30
2022-12-13T05:13:57.616Z,25.80
2022-12-13T05:18:11.105Z,20.87
2022-12-13T05:22:22.829Z,24.87
2022-12-13T05:26:34.328Z,23.27
2022-12-13T05:30:45.852Z,24.93
2022-12-13T05:34:57.475Z,23.87
2022-12-13T05:39:27.929Z,22.97
2022-12-13T05:43:43.167Z,22.37
2022-12-13T05:47:55.400Z,25.57
2022-12-13T05:52:07.016Z,20.93
2022-12-13T05:56:22.390Z,22.97
2022-12-13T06:00:35.127Z,26.00
2022-12-13T06:04:46.808Z,20.20
2022-12-13T06:08:59.708Z,23.13
2022-12-13T06:13:21.787Z,24.50
2022-12-13T06:17:42.893Z,20.77
2022-12-13T06:21:55.119Z,24.87
2022-12-13T06:26:08.096Z,23.77
2022-12-13T06:30:19.719Z,23.20
2022-12-13T06:34:36.153Z,25.93
2022-12-13T06:38:47.896Z,23.23
2022-12-13T06:42:59.520Z,30.23
2022-12-13T06:47:12.856Z,32.27
2022-12-13T06:51:43.098Z,23.53
2022-12-13T06:55:54.692Z,23.13
2022-12-13T07:00:07.014Z,23.80
2022-12-13T07:04:29.272Z,23.47
2022-12-13T07:08:44.247Z,20.70
2022-12-13T07:12:56.770Z,28.10
2022-12-13T07:17:08.419Z,27.27
2022-12-13T07:21:21.905Z,23.10
2022-12-13T07:25:34.201Z,25.30
2022-12-13T07:29:45.642Z,25.07
2022-12-13T07:33:57.089Z,25.67
2022-12-13T07:38:10.705Z,24.00
2022-12-13T07:42:22.160Z,26.70
2022-12-13T07:46:34.215Z,30.47
2022-12-13T07:50:46.392Z,30.10
2022-12-13T07:55:07.336Z,27.73
2022-12-13T07:59:28.474Z,28.00
2022-12-13T08:03:40.572Z,26.97
2022-12-13T08:07:52.093Z,28.10
2022-12-13T08:12:05.187Z,26.93
2022-12-13T08:16:26.542Z,31.17
2022-12-13T08:20:39.945Z,29.53
2022-12-13T08:24:51.793Z,31.53
2022-12-13T08:29:04.201Z,31.13
2022-12-13T08:33:16.889Z,31.00
2022-12-13T08:37:28.383Z,30.07
2022-12-13T08:41:40.453Z,33.67
2022-12-13T08:45:51.931Z,35.90
2022-12-13T08:50:04.532Z,29.57
2022-12-13T08:54:30.909Z,30.93
2022-12-13T08:58:43.319Z,31.30
2022-12-13T09:02:57.852Z,32.43
2022-12-13T09:07:09.527Z,27.67
2022-12-13T09:11:33.115Z,29.70
2022-12-13T09:15:48.762Z,31.93
2022-12-13T09:20:00.355Z,34.40
2022-12-13T09:24:24.248Z,34.10
2022-12-13T09:28:37.243Z,31.33
2022-12-13T09:32:50.465Z,31.00
2022-12-13T09:37:02.132Z,33.53
2022-12-13T09:41:31.091Z,33.40
2022-12-13T09:45:45.644Z,35.40
2022-12-13T09:50:00.159Z,30.73
2022-12-13T09:54:19.470Z,28.13
2022-12-13T09:58:34.905Z,27.67
2022-12-13T10:02:49.227Z,31.57
2022-12-13T10:07:01.946Z,33.77
2022-12-13T10:11:15.041Z,25.07
2022-12-13T10:15:28.174Z,33.60
2022-12-13T10:19:41.210Z,26.77
2022-12-13T10:24:23.101Z,33.77
2022-12-13T10:28:30.927Z,24.90
2022-12-13T10:33:04.812Z,27.67
2022-12-13T10:37:30.619Z,25.37
2022-12-13T10:41:42.153Z,26.10
2022-12-13T10:46:01.271Z,26.00
2022-12-13T10:50:28.495Z,29.00
2022-12-13T10:54:48.511Z,26.77
2022-12-13T10:59:37.313Z,23.10
2022-12-13T11:04:02.408Z,28.10
2022-12-13T11:08:15.672Z,27.00
2022-12-13T11:12:27.867Z,25.93
2022-12-13T11:16:41.564Z,26.93
2022-12-13T11:21:02.714Z,23.57
2022-12-13T11:25:25.294Z,27.77
2022-12-13T11:29:55.757Z,27.97
2022-12-13T11:34:34.684Z,23.10
2022-12-13T11:39:10.485Z,19.83
2022-12-13T11:43:40.699Z,24.13
2022-12-13T11:48:05.330Z,24.20
2022-12-13T11:52:35.416Z,19.57
2022-12-13T11:56:47.349Z,24.67
2022-12-13T12:01:13.014Z,22.23
2022-12-13T12:05:24.578Z,23.67
2022-12-13T12:09:50.469Z,25.27
2022-12-13T12:14:14.502Z,24.57
2022-12-13T12:18:26.246Z,18.90
2022-12-13T12:23:01.082Z,18.27
2022-12-13T12:27:22.653Z,21.27
2022-12-13T12:31:58.026Z,26.27
2022-12-13T12:36:34.055Z,23.83
2022-12-13T12:45:59.712Z,20.67
2022-12-13T12:50:44.110Z,20.53
2022-12-13T12:55:04.069Z,22.63
2022-12-13T12:59:39.111Z,23.53
2022-12-13T13:03:53.628Z,20.43
2022-12-13T13:08:15.268Z,23.57
2022-12-13T13:12:29.559Z,19.30
2022-12-13T13:16:42.192Z,21.77
2022-12-13T13:21:25.721Z,21.77
2022-12-13T13:25:54.016Z,21.70
2022-12-13T13:30:21.241Z,20.20
2022-12-13T13:34:38.806Z,24.13
2022-12-13T13:38:52.947Z,23.13
2022-12-13T13:43:10.553Z,17.47
2022-12-13T13:47:24.832Z,19.53
2022-12-13T13:56:49.992Z,23.67
2022-12-13T14:01:08.604Z,24.10
2022-12-13T14:05:52.727Z,24.13
2022-12-13T14:10:13.524Z,21.93
2022-12-13T14:15:01.930Z,19.13
2022-12-13T14:19:37.742Z,17.63
2022-12-13T14:24:19.311Z,19.50
2022-12-13T14:28:51.962Z,21.73
2022-12-13T14:33:03.570Z,23.67
2022-12-13T14:37:38.339Z,18.43
2022-12-13T14:41:56.646Z,22.50
2022-12-13T14:46:14.517Z,20.03
2022-12-13T14:50:28.114Z,22.47
2022-12-13T14:54:50.429Z,19.67
2022-12-13T14:59:13.285Z,24.63
2022-12-13T15:03:27.655Z,21.57
2022-12-13T15:07:41.538Z,21.23
2022-12-13T15:11:53.545Z,23.10
2022-12-13T15:16:25.484Z,22.40
2022-12-13T15:20:39.803Z,23.50
2022-12-13T15:24:53.009Z,22.60
2022-12-13T15:29:24.280Z,22.43
2022-12-13T15:33:42.608Z,24.33
2022-12-13T15:37:59.814Z,23.40
2022-12-13T15:42:27.156Z,20.93
2022-12-13T15:46:38.783Z,21.43
2022-12-13T15:50:50.374Z,24.53
2022-12-13T15:55:05.039Z,23.80
2022-12-13T15:59:29.073Z,20.57
2022-12-13T16:03:40.511Z,24.87
2022-12-13T16:07:56.367Z,30.40
2022-12-13T16:12:22.477Z,34.53
2022-12-13T16:16:34.225Z,33.57
2022-12-13T16:20:46.461Z,24.33
2022-12-13T16:24:59.523Z,30.20
2022-12-13T16:29:16.264Z,34.77
2022-12-13T16:33:28.171Z,27.40
2022-12-13T16:37:39.705Z,25.53
2022-12-13T16:41:52.864Z,24.07
2022-12-13T16:47:10.110Z,28.37
2022-12-13T16:50:38.869Z,28.33
2022-12-13T16:54:51.592Z,21.73
2022-12-13T16:59:03.160Z,29.43
2022-12-13T17:03:15.777Z,22.53
2022-12-13T17:07:27.467Z,28.03
2022-12-13T17:11:39.088Z,31.03
2022-12-13T17:15:59.018Z,28.37
2022-12-13T17:20:17.426Z,22.73
2022-12-13T17:24:30.743Z,20.17
2022-12-13T17:28:42.296Z,22.27
2022-12-13T17:32:54.751Z,35.40
2022-12-13T17:37:10.418Z,48.33
2022-12-13T17:41:22.387Z,35.27
2022-12-13T17:45:33.969Z,26.17
2022-12-13T17:49:46.020Z,20.77
2022-12-13T17:53:57.678Z,24.33
2022-12-13T17:58:09.346Z,30.40
2022-12-13T18:02:23.064Z,24.03
2022-12-13T18:06:34.964Z,23.23
2022-12-13T18:11:23.513Z,21.20
2022-12-13T18:15:28.604Z,23.13
2022-12-13T18:19:40.543Z,21.97
2022-12-13T18:23:55.782Z,22.00
2022-12-13T18:28:09.516Z,27.17
2022-12-13T18:32:21.096Z,22.65
2022-12-13T18:36:33.180Z,22.00
2022-12-13T18:40:44.764Z,23.27
2022-12-13T18:44:56.274Z,19.37
2022-12-13T18:49:09.616Z,24.43
2022-12-13T18:53:21.214Z,19.43
2022-12-13T18:57:32.904Z,20.00
2022-12-13T19:01:44.651Z,18.23
2022-12-13T19:05:57.337Z,22.40
2022-12-13T19:10:09.871Z,17.37
2022-12-13T19:14:26.835Z,18.63
2022-12-13T19:18:38.800Z,22.93
2022-12-13T19:22:50.445Z,24.57
2022-12-13T19:27:02.019Z,20.47
2022-12-13T19:31:15.576Z,23.50
2022-12-13T19:35:27.225Z,20.27
2022-12-13T19:39:38.868Z,18.83
2022-12-13T19:43:53.024Z,20.77
2022-12-13T19:48:04.949Z,19.47
2022-12-13T19:52:16.569Z,25.33
2022-12-13T19:56:28.140Z,23.47
2022-12-13T20:00:41.523Z,21.50
2022-12-13T20:04:53.194Z,21.40
2022-12-13T20:09:04.760Z,19.53
2022-12-13T20:13:16.334Z,18.70
2022-12-13T20:17:28.179Z,19.57
2022-12-13T20:21:39.761Z,23.83
2022-12-13T20:26:02.456Z,24.60
2022-12-13T20:30:14.241Z,19.43
2022-12-13T20:34:26.643Z,22.60
2022-12-13T20:38:39.187Z,19.90
2022-12-13T20:42:51.482Z,19.80
2022-12-13T20:47:03.162Z,20.17
2022-12-13T20:51:17.335Z,17.03
2022-12-13T20:55:29.036Z,16.30
2022-12-13T20:59:40.959Z,17.33
2022-12-13T21:03:58.451Z,17.83
2022-12-13T21:08:28.660Z,19.23
2022-12-13T21:12:40.251Z,17.90
2022-12-13T21:16:57.261Z,17.67
2022-12-13T21:21:09.513Z,20.73
2022-12-13T21:25:21.080Z,18.13
2022-12-13T21:29:32.652Z,16.97
2022-12-13T21:33:44.248Z,15.60
2022-12-13T21:37:57.780Z,15.83
2022-12-13T21:42:14.187Z,19.45
2022-12-13T21:46:47.526Z,14.20
2022-12-13T21:50:59.647Z,22.07
2022-12-13T21:55:37.962Z,21.67
2022-12-13T21:59:43.265Z,17.73
2022-12-13T22:03:55.942Z,17.93
2022-12-13T22:08:07.625Z,16.77
2022-12-13T22:12:31.596Z,18.57
2022-12-13T22:16:43.252Z,17.00
2022-12-13T22:20:58.746Z,14.80
2022-12-13T22:25:10.723Z,15.47
2022-12-13T22:29:22.614Z,19.57
2022-12-13T22:33:34.250Z,19.40
2022-12-13T22:37:48.723Z,14.50
2022-12-13T22:42:00.564Z,14.70
2022-12-13T22:46:14.911Z,14.10
2022-12-13T22:50:29.495Z,14.27
2022-12-13T22:54:41.154Z,17.07
2022-12-13T22:59:01.961Z,18.63
2022-12-13T23:03:13.592Z,13.73
2022-12-13T23:07:25.192Z,16.33
2022-12-13T23:11:55.469Z,17.10
2022-12-13T23:16:07.520Z,12.20
2022-12-13T23:20:19.194Z,15.53
2022-12-13T23:24:31.118Z,13.97
2022-12-13T23:28:44.652Z,13.77
2022-12-13T23:32:56.252Z,12.70
2022-12-13T23:37:07.869Z,11.03
2022-12-13T23:41:25.429Z,10.40
2022-12-13T23:45:38.873Z,13.20
2022-12-13T23:49:50.433Z,11.40
2022-12-13T23:54:02.608Z,11.97
2022-12-13T23:58:17.067Z,11.60
